sensor_id;sensor_type;location;lat;lon;timestamp;P1;durP1;ratioP1;P2;durP2;ratioP2
4138;SDS011;2083;51.034;6.996;2022-09-01T00:02:19;3.70;;;3.50;;
4138;SDS011;2083;51.034;6.996;2022-09-01T00:04:45;4.63;;;4.23;;
4138;SDS011;2083;51.034;6.996;2022-09-01T00:07:12;4.70;;;4.40;;
4138;SDS011;2083;51.034;6.996;2022-09-01T00:09:38;3.60;;;3.40;;
4138;SDS011;2083;51.034;6.996;2022-09-01T00:12:05;3.40;;;3.30;;
4138;SDS011;2083;51.034;6.996;2022-09-01T00:14:33;3.40;;;3.30;;
4138;SDS011;2083;51.034;6.996;2022-09-01T00:17:00;6.00;;;3.53;;
4138;SDS011;2083;51.034;6.996;2022-09-01T00:19:27;4.13;;;3.40;;
4138;SDS011;2083;51.034;6.996;2022-09-01T00:21:53;3.57;;;3.33;;
4138;SDS011;2083;51.034;6.996;2022-09-01T00:24:20;4.00;;;3.70;;
4138;SDS011;2083;51.034;6.996;2022-09-01T00:26:46;7.70;;;3.80;;
4138;SDS011;2083;51.034;6.996;2022-09-01T00:29:13;6.03;;;4.00;;
4138;SDS011;2083;51.034;6.996;2022-09-01T00:31:39;5.57;;;3.57;;
4138;SDS011;2083;51.034;6.996;2022-09-01T00:34:05;4.00;;;3.80;;
4138;SDS011;2083;51.034;6.996;2022-09-01T00:36:31;4.80;;;4.40;;
4138;SDS011;2083;51.034;6.996;2022-09-01T00:38:57;4.07;;;3.77;;
4138;SDS011;2083;51.034;6.996;2022-09-01T00:41:25;4.20;;;4.00;;
4138;SDS011;2083;51.034;6.996;2022-09-01T00:43:55;3.33;;;3.23;;
4138;SDS011;2083;51.034;6.996;2022-09-01T00:46:22;5.97;;;4.40;;
4138;SDS011;2083;51.034;6.996;2022-09-01T00:48:53;4.30;;;4.00;;
4138;SDS011;2083;51.034;6.996;2022-09-01T00:51:20;3.73;;;3.53;;
4138;SDS011;2083;51.034;6.996;2022-09-01T00:53:46;4.23;;;3.70;;
4138;SDS011;2083;51.034;6.996;2022-09-01T00:56:13;3.80;;;3.60;;
4138;SDS011;2083;51.034;6.996;2022-09-01T00:58:40;3.63;;;3.43;;
4138;SDS011;2083;51.034;6.996;2022-09-01T01:01:07;4.50;;;4.10;;
4138;SDS011;2083;51.034;6.996;2022-09-01T01:03:33;4.60;;;4.10;;
4138;SDS011;2083;51.034;6.996;2022-09-01T01:06:01;5.03;;;4.30;;
4138;SDS011;2083;51.034;6.996;2022-09-01T01:08:29;4.10;;;3.90;;
4138;SDS011;2083;51.034;6.996;2022-09-01T01:10:58;4.30;;;4.00;;
4138;SDS011;2083;51.034;6.996;2022-09-01T01:13:24;4.67;;;4.37;;
4138;SDS011;2083;51.034;6.996;2022-09-01T01:15:51;4.63;;;3.37;;
4138;SDS011;2083;51.034;6.996;2022-09-01T01:18:17;3.37;;;3.20;;
4138;SDS011;2083;51.034;6.996;2022-09-01T01:20:43;3.50;;;3.30;;
4138;SDS011;2083;51.034;6.996;2022-09-01T01:26:01;6.33;;;4.07;;
4138;SDS011;2083;51.034;6.996;2022-09-01T01:28:29;3.13;;;3.03;;
4138;SDS011;2083;51.034;6.996;2022-09-01T01:31:07;3.83;;;3.63;;
4138;SDS011;2083;51.034;6.996;2022-09-01T01:33:46;3.77;;;3.60;;
4138;SDS011;2083;51.034;6.996;2022-09-01T01:36:14;4.20;;;4.00;;
4138;SDS011;2083;51.034;6.996;2022-09-01T01:38:41;5.00;;;3.80;;
4138;SDS011;2083;51.034;6.996;2022-09-01T01:41:08;4.67;;;4.47;;
4138;SDS011;2083;51.034;6.996;2022-09-01T01:43:34;4.83;;;4.37;;
4138;SDS011;2083;51.034;6.996;2022-09-01T01:46:02;4.23;;;4.03;;
4138;SDS011;2083;51.034;6.996;2022-09-01T01:48:29;6.60;;;4.00;;
4138;SDS011;2083;51.034;6.996;2022-09-01T01:50:58;3.77;;;3.57;;
4138;SDS011;2083;51.034;6.996;2022-09-01T01:53:24;4.13;;;3.80;;
4138;SDS011;2083;51.034;6.996;2022-09-01T01:55:50;3.47;;;3.27;;
4138;SDS011;2083;51.034;6.996;2022-09-01T01:58:17;5.60;;;4.10;;
4138;SDS011;2083;51.034;6.996;2022-09-01T02:00:44;4.17;;;3.97;;
4138;SDS011;2083;51.034;6.996;2022-09-01T02:03:11;3.80;;;3.60;;
4138;SDS011;2083;51.034;6.996;2022-09-01T02:05:41;3.67;;;3.37;;
4138;SDS011;2083;51.034;6.996;2022-09-01T02:08:07;10.27;;;3.30;;
4138;SDS011;2083;51.034;6.996;2022-09-01T02:10:35;3.37;;;3.17;;
4138;SDS011;2083;51.034;6.996;2022-09-01T02:13:04;2.93;;;2.83;;
4138;SDS011;2083;51.034;6.996;2022-09-01T02:15:36;8.13;;;4.60;;
4138;SDS011;2083;51.034;6.996;2022-09-01T02:18:07;3.37;;;3.07;;
4138;SDS011;2083;51.034;6.996;2022-09-01T02:20:33;5.30;;;2.97;;
4138;SDS011;2083;51.034;6.996;2022-09-01T02:23:00;4.70;;;3.90;;
4138;SDS011;2083;51.034;6.996;2022-09-01T02:25:33;4.70;;;3.00;;
4138;SDS011;2083;51.034;6.996;2022-09-01T02:27:59;4.30;;;3.67;;
4138;SDS011;2083;51.034;6.996;2022-09-01T02:30:27;3.33;;;3.07;;
4138;SDS011;2083;51.034;6.996;2022-09-01T02:32:56;5.63;;;3.00;;
4138;SDS011;2083;51.034;6.996;2022-09-01T02:35:23;3.60;;;3.00;;
4138;SDS011;2083;51.034;6.996;2022-09-01T02:37:55;9.53;;;3.23;;
4138;SDS011;2083;51.034;6.996;2022-09-01T02:40:24;4.03;;;3.83;;
4138;SDS011;2083;51.034;6.996;2022-09-01T02:42:50;2.67;;;2.57;;
4138;SDS011;2083;51.034;6.996;2022-09-01T02:45:19;3.30;;;3.13;;
4138;SDS011;2083;51.034;6.996;2022-09-01T02:47:46;5.20;;;3.20;;
4138;SDS011;2083;51.034;6.996;2022-09-01T02:50:12;2.57;;;2.37;;
4138;SDS011;2083;51.034;6.996;2022-09-01T02:52:41;3.20;;;3.00;;
4138;SDS011;2083;51.034;6.996;2022-09-01T02:55:07;5.80;;;2.67;;
4138;SDS011;2083;51.034;6.996;2022-09-01T02:57:34;3.10;;;3.00;;
4138;SDS011;2083;51.034;6.996;2022-09-01T03:00:00;6.57;;;2.73;;
4138;SDS011;2083;51.034;6.996;2022-09-01T03:02:27;3.10;;;2.90;;
4138;SDS011;2083;51.034;6.996;2022-09-01T03:04:54;2.40;;;2.20;;
4138;SDS011;2083;51.034;6.996;2022-09-01T03:07:21;3.30;;;2.60;;
4138;SDS011;2083;51.034;6.996;2022-09-01T03:09:49;3.13;;;2.83;;
4138;SDS011;2083;51.034;6.996;2022-09-01T03:12:16;2.80;;;2.60;;
4138;SDS011;2083;51.034;6.996;2022-09-01T03:14:43;10.03;;;2.87;;
4138;SDS011;2083;51.034;6.996;2022-09-01T03:17:09;2.97;;;2.77;;
4138;SDS011;2083;51.034;6.996;2022-09-01T03:19:35;4.03;;;2.70;;
4138;SDS011;2083;51.034;6.996;2022-09-01T03:22:08;2.40;;;2.30;;
4138;SDS011;2083;51.034;6.996;2022-09-01T03:24:34;3.67;;;2.40;;
4138;SDS011;2083;51.034;6.996;2022-09-01T03:27:00;2.70;;;2.60;;
4138;SDS011;2083;51.034;6.996;2022-09-01T03:29:26;3.10;;;2.90;;
4138;SDS011;2083;51.034;6.996;2022-09-01T03:31:52;3.30;;;2.67;;
4138;SDS011;2083;51.034;6.996;2022-09-01T03:34:18;4.20;;;3.00;;
4138;SDS011;2083;51.034;6.996;2022-09-01T03:36:47;2.90;;;2.70;;
4138;SDS011;2083;51.034;6.996;2022-09-01T03:39:18;2.80;;;2.60;;
4138;SDS011;2083;51.034;6.996;2022-09-01T03:41:44;3.80;;;2.60;;
4138;SDS011;2083;51.034;6.996;2022-09-01T03:44:11;3.27;;;2.90;;
4138;SDS011;2083;51.034;6.996;2022-09-01T03:46:40;3.17;;;2.80;;
4138;SDS011;2083;51.034;6.996;2022-09-01T03:49:07;2.50;;;2.40;;
4138;SDS011;2083;51.034;6.996;2022-09-01T03:51:39;2.40;;;2.30;;
4138;SDS011;2083;51.034;6.996;2022-09-01T03:54:06;3.63;;;2.90;;
4138;SDS011;2083;51.034;6.996;2022-09-01T03:56:32;4.27;;;2.67;;
4138;SDS011;2083;51.034;6.996;2022-09-01T03:58:58;2.50;;;2.30;;
4138;SDS011;2083;51.034;6.996;2022-09-01T04:01:25;5.93;;;2.30;;
4138;SDS011;2083;51.034;6.996;2022-09-01T04:03:51;3.77;;;3.43;;
4138;SDS011;2083;51.034;6.996;2022-09-01T04:06:17;5.80;;;3.20;;
4138;SDS011;2083;51.034;6.996;2022-09-01T04:08:44;3.87;;;2.73;;
4138;SDS011;2083;51.034;6.996;2022-09-01T04:11:15;3.37;;;3.27;;
4138;SDS011;2083;51.034;6.996;2022-09-01T04:13:43;3.10;;;3.00;;
4138;SDS011;2083;51.034;6.996;2022-09-01T04:16:16;2.87;;;2.77;;
4138;SDS011;2083;51.034;6.996;2022-09-01T04:19:02;3.37;;;2.90;;
4138;SDS011;2083;51.034;6.996;2022-09-01T04:21:40;3.10;;;2.90;;
4138;SDS011;2083;51.034;6.996;2022-09-01T04:24:07;4.10;;;2.80;;
4138;SDS011;2083;51.034;6.996;2022-09-01T04:26:34;3.03;;;2.93;;
4138;SDS011;2083;51.034;6.996;2022-09-01T04:29:02;2.70;;;2.50;;
4138;SDS011;2083;51.034;6.996;2022-09-01T04:31:28;2.47;;;2.37;;
4138;SDS011;2083;51.034;6.996;2022-09-01T04:33:54;3.03;;;2.93;;
4138;SDS011;2083;51.034;6.996;2022-09-01T04:36:21;3.00;;;2.73;;
4138;SDS011;2083;51.034;6.996;2022-09-01T04:38:51;2.80;;;2.60;;
4138;SDS011;2083;51.034;6.996;2022-09-01T04:41:20;2.90;;;2.70;;
4138;SDS011;2083;51.034;6.996;2022-09-01T04:43:49;3.17;;;2.90;;
4138;SDS011;2083;51.034;6.996;2022-09-01T04:46:16;2.87;;;2.67;;
4138;SDS011;2083;51.034;6.996;2022-09-01T04:48:42;2.70;;;2.60;;
4138;SDS011;2083;51.034;6.996;2022-09-01T04:51:09;3.07;;;2.50;;
4138;SDS011;2083;51.034;6.996;2022-09-01T04:53:36;7.73;;;2.30;;
4138;SDS011;2083;51.034;6.996;2022-09-01T04:56:02;3.10;;;2.90;;
4138;SDS011;2083;51.034;6.996;2022-09-01T04:58:28;2.47;;;2.33;;
4138;SDS011;2083;51.034;6.996;2022-09-01T05:00:54;2.80;;;2.70;;
4138;SDS011;2083;51.034;6.996;2022-09-01T05:03:20;3.00;;;2.60;;
4138;SDS011;2083;51.034;6.996;2022-09-01T05:05:48;3.17;;;3.07;;
4138;SDS011;2083;51.034;6.996;2022-09-01T05:08:15;4.60;;;2.87;;
4138;SDS011;2083;51.034;6.996;2022-09-01T05:10:45;5.47;;;2.33;;
4138;SDS011;2083;51.034;6.996;2022-09-01T05:13:12;2.20;;;2.10;;
4138;SDS011;2083;51.034;6.996;2022-09-01T05:15:38;2.63;;;2.53;;
4138;SDS011;2083;51.034;6.996;2022-09-01T05:18:10;2.37;;;2.27;;
4138;SDS011;2083;51.034;6.996;2022-09-01T05:20:37;2.50;;;2.37;;
4138;SDS011;2083;51.034;6.996;2022-09-01T05:23:04;8.20;;;2.63;;
4138;SDS011;2083;51.034;6.996;2022-09-01T05:25:36;2.67;;;2.10;;
4138;SDS011;2083;51.034;6.996;2022-09-01T05:28:02;4.33;;;3.07;;
4138;SDS011;2083;51.034;6.996;2022-09-01T05:30:28;4.83;;;2.23;;
4138;SDS011;2083;51.034;6.996;2022-09-01T05:32:54;4.47;;;2.37;;
4138;SDS011;2083;51.034;6.996;2022-09-01T05:35:20;1.90;;;1.80;;
4138;SDS011;2083;51.034;6.996;2022-09-01T05:37:49;3.93;;;2.03;;
4138;SDS011;2083;51.034;6.996;2022-09-01T05:40:15;3.43;;;2.50;;
4138;SDS011;2083;51.034;6.996;2022-09-01T05:42:42;2.43;;;2.23;;
4138;SDS011;2083;51.034;6.996;2022-09-01T05:45:10;2.47;;;2.03;;
4138;SDS011;2083;51.034;6.996;2022-09-01T05:47:37;2.03;;;1.90;;
4138;SDS011;2083;51.034;6.996;2022-09-01T05:50:03;2.70;;;2.03;;
4138;SDS011;2083;51.034;6.996;2022-09-01T05:52:32;3.00;;;1.90;;
4138;SDS011;2083;51.034;6.996;2022-09-01T05:54:59;2.27;;;2.17;;
4138;SDS011;2083;51.034;6.996;2022-09-01T05:57:25;5.10;;;2.30;;
4138;SDS011;2083;51.034;6.996;2022-09-01T05:59:51;1.60;;;1.50;;
4138;SDS011;2083;51.034;6.996;2022-09-01T06:02:21;3.57;;;1.80;;
4138;SDS011;2083;51.034;6.996;2022-09-01T06:04:48;4.33;;;1.90;;
4138;SDS011;2083;51.034;6.996;2022-09-01T06:07:15;3.27;;;1.80;;
4138;SDS011;2083;51.034;6.996;2022-09-01T06:09:43;2.10;;;1.90;;
4138;SDS011;2083;51.034;6.996;2022-09-01T06:12:12;4.17;;;1.87;;
4138;SDS011;2083;51.034;6.996;2022-09-01T06:14:47;1.93;;;1.27;;
4138;SDS011;2083;51.034;6.996;2022-09-01T06:17:14;2.50;;;1.67;;
4138;SDS011;2083;51.034;6.996;2022-09-01T06:19:40;1.37;;;1.27;;
4138;SDS011;2083;51.034;6.996;2022-09-01T06:22:06;1.87;;;1.60;;
4138;SDS011;2083;51.034;6.996;2022-09-01T06:24:34;16.23;;;2.00;;
4138;SDS011;2083;51.034;6.996;2022-09-01T06:27:00;4.40;;;1.50;;
4138;SDS011;2083;51.034;6.996;2022-09-01T06:29:26;1.80;;;1.70;;
4138;SDS011;2083;51.034;6.996;2022-09-01T06:31:55;3.43;;;1.47;;
4138;SDS011;2083;51.034;6.996;2022-09-01T06:34:22;2.13;;;1.63;;
4138;SDS011;2083;51.034;6.996;2022-09-01T06:36:50;1.73;;;1.40;;
4138;SDS011;2083;51.034;6.996;2022-09-01T06:39:16;2.50;;;1.40;;
4138;SDS011;2083;51.034;6.996;2022-09-01T06:41:48;1.93;;;1.37;;
4138;SDS011;2083;51.034;6.996;2022-09-01T06:44:16;8.70;;;2.10;;
4138;SDS011;2083;51.034;6.996;2022-09-01T06:46:50;1.87;;;1.20;;
4138;SDS011;2083;51.034;6.996;2022-09-01T06:49:17;7.27;;;1.50;;
4138;SDS011;2083;51.034;6.996;2022-09-01T06:51:43;1.37;;;1.27;;
4138;SDS011;2083;51.034;6.996;2022-09-01T06:54:15;2.70;;;1.90;;
4138;SDS011;2083;51.034;6.996;2022-09-01T06:56:43;1.60;;;1.50;;
4138;SDS011;2083;51.034;6.996;2022-09-01T06:59:10;1.50;;;1.40;;
4138;SDS011;2083;51.034;6.996;2022-09-01T07:01:39;1.57;;;1.10;;
4138;SDS011;2083;51.034;6.996;2022-09-01T07:04:05;1.27;;;1.17;;
4138;SDS011;2083;51.034;6.996;2022-09-01T07:06:31;2.80;;;1.10;;
4138;SDS011;2083;51.034;6.996;2022-09-01T07:08:59;2.60;;;1.10;;
4138;SDS011;2083;51.034;6.996;2022-09-01T07:11:26;1.03;;;0.93;;
4138;SDS011;2083;51.034;6.996;2022-09-01T07:13:54;1.03;;;0.90;;
4138;SDS011;2083;51.034;6.996;2022-09-01T07:16:21;2.90;;;0.93;;
4138;SDS011;2083;51.034;6.996;2022-09-01T07:18:52;1.27;;;1.17;;
4138;SDS011;2083;51.034;6.996;2022-09-01T07:21:20;2.33;;;1.30;;
4138;SDS011;2083;51.034;6.996;2022-09-01T07:23:46;0.80;;;0.77;;
4138;SDS011;2083;51.034;6.996;2022-09-01T07:26:12;3.33;;;0.90;;
4138;SDS011;2083;51.034;6.996;2022-09-01T07:28:45;1.43;;;1.00;;
4138;SDS011;2083;51.034;6.996;2022-09-01T07:31:25;1.20;;;1.10;;
4138;SDS011;2083;51.034;6.996;2022-09-01T07:33:52;4.97;;;0.70;;
4138;SDS011;2083;51.034;6.996;2022-09-01T07:36:18;1.27;;;1.17;;
4138;SDS011;2083;51.034;6.996;2022-09-01T07:38:45;2.60;;;0.73;;
4138;SDS011;2083;51.034;6.996;2022-09-01T07:41:18;2.10;;;0.80;;
4138;SDS011;2083;51.034;6.996;2022-09-01T07:43:44;1.07;;;0.83;;
4138;SDS011;2083;51.034;6.996;2022-09-01T07:46:10;3.40;;;1.00;;
4138;SDS011;2083;51.034;6.996;2022-09-01T07:48:37;0.70;;;0.60;;
4138;SDS011;2083;51.034;6.996;2022-09-01T07:51:03;1.97;;;0.87;;
4138;SDS011;2083;51.034;6.996;2022-09-01T07:53:32;0.80;;;0.80;;
4138;SDS011;2083;51.034;6.996;2022-09-01T07:56:04;0.77;;;0.70;;
4138;SDS011;2083;51.034;6.996;2022-09-01T07:58:31;2.00;;;1.20;;
4138;SDS011;2083;51.034;6.996;2022-09-01T08:00:57;3.33;;;0.93;;
4138;SDS011;2083;51.034;6.996;2022-09-01T08:03:27;0.80;;;0.70;;
4138;SDS011;2083;51.034;6.996;2022-09-01T08:05:53;0.93;;;0.83;;
4138;SDS011;2083;51.034;6.996;2022-09-01T08:08:23;1.63;;;0.70;;
4138;SDS011;2083;51.034;6.996;2022-09-01T08:10:49;1.13;;;0.70;;
4138;SDS011;2083;51.034;6.996;2022-09-01T08:13:16;3.47;;;0.70;;
4138;SDS011;2083;51.034;6.996;2022-09-01T08:15:42;0.70;;;0.70;;
4138;SDS011;2083;51.034;6.996;2022-09-01T08:18:08;0.70;;;0.70;;
4138;SDS011;2083;51.034;6.996;2022-09-01T08:20:36;1.10;;;0.83;;
4138;SDS011;2083;51.034;6.996;2022-09-01T08:23:03;1.80;;;0.70;;
4138;SDS011;2083;51.034;6.996;2022-09-01T08:25:30;4.93;;;0.70;;
4138;SDS011;2083;51.034;6.996;2022-09-01T08:28:06;0.90;;;0.90;;
4138;SDS011;2083;51.034;6.996;2022-09-01T08:30:33;1.30;;;0.93;;
4138;SDS011;2083;51.034;6.996;2022-09-01T08:33:00;0.80;;;0.70;;
4138;SDS011;2083;51.034;6.996;2022-09-01T08:35:27;0.83;;;0.83;;
4138;SDS011;2083;51.034;6.996;2022-09-01T08:37:53;1.17;;;0.70;;
4138;SDS011;2083;51.034;6.996;2022-09-01T08:40:19;3.23;;;0.90;;
4138;SDS011;2083;51.034;6.996;2022-09-01T08:45:32;2.80;;;1.00;;
4138;SDS011;2083;51.034;6.996;2022-09-01T08:48:05;2.30;;;0.87;;
4138;SDS011;2083;51.034;6.996;2022-09-01T08:50:35;1.60;;;1.00;;
4138;SDS011;2083;51.034;6.996;2022-09-01T08:53:04;0.80;;;0.80;;
4138;SDS011;2083;51.034;6.996;2022-09-01T08:55:34;2.83;;;0.80;;
4138;SDS011;2083;51.034;6.996;2022-09-01T08:58:03;1.20;;;0.87;;
4138;SDS011;2083;51.034;6.996;2022-09-01T09:00:32;0.93;;;0.93;;
4138;SDS011;2083;51.034;6.996;2022-09-01T09:11:33;2.70;;;0.80;;
4138;SDS011;2083;51.034;6.996;2022-09-01T09:14:14;1.90;;;0.70;;
4138;SDS011;2083;51.034;6.996;2022-09-01T09:16:44;0.77;;;0.77;;
4138;SDS011;2083;51.034;6.996;2022-09-01T09:19:29;3.30;;;1.23;;
4138;SDS011;2083;51.034;6.996;2022-09-01T09:21:56;1.77;;;0.80;;
4138;SDS011;2083;51.034;6.996;2022-09-01T09:27:24;0.80;;;0.80;;
4138;SDS011;2083;51.034;6.996;2022-09-01T09:32:22;0.83;;;0.83;;
4138;SDS011;2083;51.034;6.996;2022-09-01T09:34:48;1.67;;;0.80;;
4138;SDS011;2083;51.034;6.996;2022-09-01T09:37:22;0.80;;;0.63;;
4138;SDS011;2083;51.034;6.996;2022-09-01T09:42:34;0.83;;;0.83;;
4138;SDS011;2083;51.034;6.996;2022-09-01T09:45:04;1.00;;;0.80;;
4138;SDS011;2083;51.034;6.996;2022-09-01T09:47:35;1.00;;;0.80;;
4138;SDS011;2083;51.034;6.996;2022-09-01T09:50:17;0.80;;;0.70;;
4138;SDS011;2083;51.034;6.996;2022-09-01T09:52:43;1.00;;;0.83;;
4138;SDS011;2083;51.034;6.996;2022-09-01T09:55:21;1.03;;;1.03;;
4138;SDS011;2083;51.034;6.996;2022-09-01T09:57:48;1.07;;;0.60;;
4138;SDS011;2083;51.034;6.996;2022-09-01T10:00:18;0.70;;;0.70;;
4138;SDS011;2083;51.034;6.996;2022-09-01T10:02:44;1.40;;;0.70;;
4138;SDS011;2083;51.034;6.996;2022-09-01T10:07:52;2.47;;;0.80;;
4138;SDS011;2083;51.034;6.996;2022-09-01T10:10:30;1.00;;;0.90;;
4138;SDS011;2083;51.034;6.996;2022-09-01T10:13:02;8.20;;;0.90;;
4138;SDS011;2083;51.034;6.996;2022-09-01T10:15:29;1.73;;;0.90;;
4138;SDS011;2083;51.034;6.996;2022-09-01T10:17:59;1.00;;;0.60;;
4138;SDS011;2083;51.034;6.996;2022-09-01T10:20:26;2.80;;;0.80;;
4138;SDS011;2083;51.034;6.996;2022-09-01T10:22:53;2.10;;;0.67;;
4138;SDS011;2083;51.034;6.996;2022-09-01T10:25:26;1.23;;;0.80;;
4138;SDS011;2083;51.034;6.996;2022-09-01T10:27:55;0.70;;;0.67;;
4138;SDS011;2083;51.034;6.996;2022-09-01T10:30:22;0.70;;;0.70;;
4138;SDS011;2083;51.034;6.996;2022-09-01T10:32:52;1.97;;;0.70;;
4138;SDS011;2083;51.034;6.996;2022-09-01T10:35:29;0.70;;;0.60;;
4138;SDS011;2083;51.034;6.996;2022-09-01T10:37:56;0.80;;;0.80;;
4138;SDS011;2083;51.034;6.996;2022-09-01T10:42:54;1.30;;;0.80;;
4138;SDS011;2083;51.034;6.996;2022-09-01T10:50:45;1.03;;;0.93;;
4138;SDS011;2083;51.034;6.996;2022-09-01T10:56:17;2.90;;;1.10;;
4138;SDS011;2083;51.034;6.996;2022-09-01T11:06:43;1.50;;;1.40;;
4138;SDS011;2083;51.034;6.996;2022-09-01T11:09:22;1.63;;;1.53;;
4138;SDS011;2083;51.034;6.996;2022-09-01T11:11:53;1.73;;;1.60;;
4138;SDS011;2083;51.034;6.996;2022-09-01T11:14:21;4.83;;;1.63;;
4138;SDS011;2083;51.034;6.996;2022-09-01T11:17:21;2.90;;;1.40;;
4138;SDS011;2083;51.034;6.996;2022-09-01T11:19:43;1.40;;;1.30;;
4138;SDS011;2083;51.034;6.996;2022-09-01T11:22:22;1.60;;;1.50;;
4138;SDS011;2083;51.034;6.996;2022-09-01T11:25:04;1.10;;;1.00;;
4138;SDS011;2083;51.034;6.996;2022-09-01T11:30:17;1.47;;;1.37;;
4138;SDS011;2083;51.034;6.996;2022-09-01T11:32:44;3.57;;;3.27;;
4138;SDS011;2083;51.034;6.996;2022-09-01T11:35:19;1.60;;;1.50;;
4138;SDS011;2083;51.034;6.996;2022-09-01T11:37:54;1.80;;;1.70;;
4138;SDS011;2083;51.034;6.996;2022-09-01T11:40:24;3.10;;;2.00;;
4138;SDS011;2083;51.034;6.996;2022-09-01T11:42:51;1.50;;;1.40;;
4138;SDS011;2083;51.034;6.996;2022-09-01T11:45:22;1.60;;;1.50;;
4138;SDS011;2083;51.034;6.996;2022-09-01T11:47:57;2.73;;;1.80;;
4138;SDS011;2083;51.034;6.996;2022-09-01T11:50:26;1.70;;;1.60;;
4138;SDS011;2083;51.034;6.996;2022-09-01T11:55:27;7.60;;;1.80;;
4138;SDS011;2083;51.034;6.996;2022-09-01T11:57:53;4.00;;;1.87;;
4138;SDS011;2083;51.034;6.996;2022-09-01T12:00:24;2.10;;;2.00;;
4138;SDS011;2083;51.034;6.996;2022-09-01T12:02:51;4.20;;;2.00;;
4138;SDS011;2083;51.034;6.996;2022-09-01T12:05:30;1.87;;;1.77;;
4138;SDS011;2083;51.034;6.996;2022-09-01T12:07:57;5.83;;;1.93;;
4138;SDS011;2083;51.034;6.996;2022-09-01T12:13:01;1.70;;;1.60;;
4138;SDS011;2083;51.034;6.996;2022-09-01T12:15:27;4.07;;;1.70;;
4138;SDS011;2083;51.034;6.996;2022-09-01T12:18:07;2.17;;;1.97;;
4138;SDS011;2083;51.034;6.996;2022-09-01T12:20:34;1.10;;;0.93;;
4138;SDS011;2083;51.034;6.996;2022-09-01T12:23:02;0.60;;;0.40;;
4138;SDS011;2083;51.034;6.996;2022-09-01T12:25:34;0.60;;;0.30;;
4138;SDS011;2083;51.034;6.996;2022-09-01T12:28:01;0.90;;;0.50;;
4138;SDS011;2083;51.034;6.996;2022-09-01T12:30:27;0.80;;;0.60;;
4138;SDS011;2083;51.034;6.996;2022-09-01T12:32:54;5.20;;;1.90;;
4138;SDS011;2083;51.034;6.996;2022-09-01T12:35:22;1.93;;;1.83;;
4138;SDS011;2083;51.034;6.996;2022-09-01T12:37:49;2.90;;;1.80;;
4138;SDS011;2083;51.034;6.996;2022-09-01T12:40:33;2.00;;;1.90;;
4138;SDS011;2083;51.034;6.996;2022-09-01T12:42:59;2.60;;;2.50;;
4138;SDS011;2083;51.034;6.996;2022-09-01T12:45:39;2.70;;;2.60;;
4138;SDS011;2083;51.034;6.996;2022-09-01T12:48:05;5.43;;;2.43;;
4138;SDS011;2083;51.034;6.996;2022-09-01T12:50:33;2.30;;;2.20;;
4138;SDS011;2083;51.034;6.996;2022-09-01T12:53:00;8.63;;;2.33;;
4138;SDS011;2083;51.034;6.996;2022-09-01T12:55:27;7.13;;;2.70;;
4138;SDS011;2083;51.034;6.996;2022-09-01T12:57:54;2.17;;;2.07;;
4138;SDS011;2083;51.034;6.996;2022-09-01T13:00:24;5.23;;;2.40;;
4138;SDS011;2083;51.034;6.996;2022-09-01T13:05:38;2.40;;;2.17;;
4138;SDS011;2083;51.034;6.996;2022-09-01T13:08:05;7.73;;;2.90;;
4138;SDS011;2083;51.034;6.996;2022-09-01T13:10:34;2.27;;;2.17;;
4138;SDS011;2083;51.034;6.996;2022-09-01T13:13:03;3.00;;;2.90;;
4138;SDS011;2083;51.034;6.996;2022-09-01T13:15:29;2.80;;;2.60;;
4138;SDS011;2083;51.034;6.996;2022-09-01T13:17:57;3.33;;;2.53;;
4138;SDS011;2083;51.034;6.996;2022-09-01T13:20:23;2.57;;;2.47;;
4138;SDS011;2083;51.034;6.996;2022-09-01T13:22:49;2.47;;;2.20;;
4138;SDS011;2083;51.034;6.996;2022-09-01T13:25:17;3.00;;;2.90;;
4138;SDS011;2083;51.034;6.996;2022-09-01T13:27:44;2.47;;;2.37;;
4138;SDS011;2083;51.034;6.996;2022-09-01T13:30:12;2.83;;;2.73;;
4138;SDS011;2083;51.034;6.996;2022-09-01T13:32:39;2.80;;;2.70;;
4138;SDS011;2083;51.034;6.996;2022-09-01T13:35:05;0.60;;;0.40;;
4138;SDS011;2083;51.034;6.996;2022-09-01T13:37:31;0.70;;;0.50;;
4138;SDS011;2083;51.034;6.996;2022-09-01T13:39:57;0.80;;;0.70;;
4138;SDS011;2083;51.034;6.996;2022-09-01T13:42:23;1.20;;;0.97;;
4138;SDS011;2083;51.034;6.996;2022-09-01T13:44:49;0.90;;;0.80;;
4138;SDS011;2083;51.034;6.996;2022-09-01T13:47:15;0.60;;;0.40;;
4138;SDS011;2083;51.034;6.996;2022-09-01T13:49:41;2.23;;;2.10;;
4138;SDS011;2083;51.034;6.996;2022-09-01T13:52:07;2.17;;;2.00;;
4138;SDS011;2083;51.034;6.996;2022-09-01T13:54:33;2.40;;;1.60;;
4138;SDS011;2083;51.034;6.996;2022-09-01T13:56:59;0.90;;;0.70;;
4138;SDS011;2083;51.034;6.996;2022-09-01T13:59:25;0.60;;;0.30;;
4138;SDS011;2083;51.034;6.996;2022-09-01T14:01:51;1.00;;;1.00;;
4138;SDS011;2083;51.034;6.996;2022-09-01T14:04:17;2.47;;;2.37;;
4138;SDS011;2083;51.034;6.996;2022-09-01T14:06:44;2.40;;;2.30;;
4138;SDS011;2083;51.034;6.996;2022-09-01T14:09:11;3.33;;;3.10;;
4138;SDS011;2083;51.034;6.996;2022-09-01T14:11:37;2.97;;;2.70;;
4138;SDS011;2083;51.034;6.996;2022-09-01T14:14:03;2.80;;;2.60;;
4138;SDS011;2083;51.034;6.996;2022-09-01T14:16:29;3.03;;;2.83;;
4138;SDS011;2083;51.034;6.996;2022-09-01T14:18:55;2.70;;;2.50;;
4138;SDS011;2083;51.034;6.996;2022-09-01T14:21:21;2.20;;;2.10;;
4138;SDS011;2083;51.034;6.996;2022-09-01T14:23:47;2.70;;;2.10;;
4138;SDS011;2083;51.034;6.996;2022-09-01T14:26:14;2.67;;;2.57;;
4138;SDS011;2083;51.034;6.996;2022-09-01T14:28:41;2.40;;;2.30;;
4138;SDS011;2083;51.034;6.996;2022-09-01T14:31:10;1.93;;;1.83;;
4138;SDS011;2083;51.034;6.996;2022-09-01T14:33:36;4.40;;;3.00;;
4138;SDS011;2083;51.034;6.996;2022-09-01T14:36:02;3.23;;;2.20;;
4138;SDS011;2083;51.034;6.996;2022-09-01T14:38:30;2.70;;;2.60;;
4138;SDS011;2083;51.034;6.996;2022-09-01T14:40:56;2.90;;;2.80;;
4138;SDS011;2083;51.034;6.996;2022-09-01T14:43:22;2.80;;;2.70;;
4138;SDS011;2083;51.034;6.996;2022-09-01T14:45:49;2.80;;;2.70;;
4138;SDS011;2083;51.034;6.996;2022-09-01T14:48:26;2.70;;;2.60;;
4138;SDS011;2083;51.034;6.996;2022-09-01T14:50:52;2.73;;;2.60;;
4138;SDS011;2083;51.034;6.996;2022-09-01T14:53:18;3.10;;;3.00;;
4138;SDS011;2083;51.034;6.996;2022-09-01T14:55:46;2.73;;;2.63;;
4138;SDS011;2083;51.034;6.996;2022-09-01T14:58:12;2.80;;;2.70;;
4138;SDS011;2083;51.034;6.996;2022-09-01T15:00:38;2.87;;;2.77;;
4138;SDS011;2083;51.034;6.996;2022-09-01T15:03:06;3.07;;;2.87;;
4138;SDS011;2083;51.034;6.996;2022-09-01T15:05:34;1.97;;;1.87;;
4138;SDS011;2083;51.034;6.996;2022-09-01T15:08:00;2.17;;;2.07;;
4138;SDS011;2083;51.034;6.996;2022-09-01T15:10:26;3.40;;;3.17;;
4138;SDS011;2083;51.034;6.996;2022-09-01T15:12:53;2.60;;;2.40;;
4138;SDS011;2083;51.034;6.996;2022-09-01T15:15:19;3.20;;;2.90;;
4138;SDS011;2083;51.034;6.996;2022-09-01T15:17:45;2.80;;;2.70;;
4138;SDS011;2083;51.034;6.996;2022-09-01T15:20:11;3.43;;;3.13;;
4138;SDS011;2083;51.034;6.996;2022-09-01T15:22:56;2.07;;;1.97;;
4138;SDS011;2083;51.034;6.996;2022-09-01T15:25:22;3.63;;;3.30;;
4138;SDS011;2083;51.034;6.996;2022-09-01T15:27:48;2.80;;;2.70;;
4138;SDS011;2083;51.034;6.996;2022-09-01T15:30:14;2.93;;;2.73;;
4138;SDS011;2083;51.034;6.996;2022-09-01T15:32:43;2.97;;;2.87;;
4138;SDS011;2083;51.034;6.996;2022-09-01T15:35:10;2.77;;;2.67;;
4138;SDS011;2083;51.034;6.996;2022-09-01T15:37:37;2.90;;;2.70;;
4138;SDS011;2083;51.034;6.996;2022-09-01T15:40:05;4.07;;;3.20;;
4138;SDS011;2083;51.034;6.996;2022-09-01T15:42:34;3.03;;;2.83;;
4138;SDS011;2083;51.034;6.996;2022-09-01T15:45:01;6.43;;;3.00;;
4138;SDS011;2083;51.034;6.996;2022-09-01T15:47:28;2.73;;;2.63;;
4138;SDS011;2083;51.034;6.996;2022-09-01T15:49:54;3.57;;;3.37;;
4138;SDS011;2083;51.034;6.996;2022-09-01T15:52:20;6.60;;;3.43;;
4138;SDS011;2083;51.034;6.996;2022-09-01T15:54:58;3.37;;;2.80;;
4138;SDS011;2083;51.034;6.996;2022-09-01T15:57:24;2.77;;;2.67;;
4138;SDS011;2083;51.034;6.996;2022-09-01T15:59:51;3.17;;;3.07;;
4138;SDS011;2083;51.034;6.996;2022-09-01T16:02:17;2.73;;;2.53;;
4138;SDS011;2083;51.034;6.996;2022-09-01T16:04:47;7.20;;;2.30;;
4138;SDS011;2083;51.034;6.996;2022-09-01T16:07:13;3.03;;;2.73;;
4138;SDS011;2083;51.034;6.996;2022-09-01T16:09:39;3.47;;;2.93;;
4138;SDS011;2083;51.034;6.996;2022-09-01T16:12:05;2.70;;;2.60;;
4138;SDS011;2083;51.034;6.996;2022-09-01T16:14:31;2.53;;;2.33;;
4138;SDS011;2083;51.034;6.996;2022-09-01T16:17:14;2.50;;;2.30;;